Time;durP1;ratioP1;P1;durP2;ratioP2;P2;SDS_P1;SDS_P2;PMS_P1;PMS_P2;Temp;Humidity;BMP_temperature;BMP_pressure;BME280_temperature;BME280_humidity;BME280_pressure;Samples;Min_cycle;Max_cycle;Signal;HPM_P1;HPM_P2
2022/05/31 00:02:04;;;;;;;3.13;2.22;;;12.10;64.90;;;;;;5092736;28;20484;-68
2022/05/31 00:04:30;;;;;;;2.92;2.03;;;12.00;65.20;;;;;;5085764;28;20019;-69
2022/05/31 00:06:56;;;;;;;2.22;1.70;;;12.00;65.20;;;;;;5104566;28;20031;-69
2022/05/31 00:09:21;;;;;;;2.65;2.00;;;12.00;65.30;;;;;;5083608;28;20027;-70
2022/05/31 00:11:47;;;;;;;2.92;1.92;;;11.90;65.30;;;;;;5106849;28;20535;-69
2022/05/31 00:14:14;;;;;;;3.03;2.33;;;12.00;65.30;;;;;;5097318;28;20073;-69
2022/05/31 00:16:40;;;;;;;2.80;2.30;;;11.90;65.60;;;;;;5090840;28;20016;-69
2022/05/31 00:19:07;;;;;;;2.88;2.25;;;11.90;65.60;;;;;;5102800;28;20023;-70
2022/05/31 00:21:44;;;;;;;2.60;2.10;;;11.90;65.60;;;;;;5090824;28;20103;-70
2022/05/31 00:24:13;;;;;;;4.60;2.22;;;11.80;65.70;;;;;;5110070;28;20081;-70
2022/05/31 00:26:40;;;;;;;3.65;2.28;;;11.80;65.70;;;;;;5096071;28;20024;-69
2022/05/31 00:29:10;;;;;;;2.40;2.20;;;11.80;65.80;;;;;;5109352;28;20111;-68
2022/05/31 00:31:42;;;;;;;3.95;2.53;;;11.80;65.80;;;;;;5097410;28;20027;-69
2022/05/31 00:34:09;;;;;;;3.58;2.08;;;11.70;66.00;;;;;;5101325;28;20024;-69
2022/05/31 00:36:37;;;;;;;3.53;2.40;;;11.70;66.10;;;;;;5095652;28;20028;-70
2022/05/31 00:39:03;;;;;;;2.80;2.10;;;11.70;66.20;;;;;;5102837;28;20102;-70
2022/05/31 00:41:29;;;;;;;3.38;2.33;;;11.60;66.20;;;;;;5081421;28;20092;-70
2022/05/31 00:44:05;;;;;;;4.10;2.10;;;11.70;66.20;;;;;;5109251;28;20027;-69
2022/05/31 00:46:46;;;;;;;3.17;2.05;;;11.70;66.00;;;;;;5095082;28;20124;-70
2022/05/31 00:49:16;;;;;;;2.80;1.90;;;11.70;66.10;;;;;;5118822;28;20012;-71
2022/05/31 00:51:49;;;;;;;8.80;4.53;;;11.70;65.90;;;;;;5099630;28;20028;-70
2022/05/31 00:54:17;;;;;;;11.02;6.35;;;11.70;66.00;;;;;;5111854;28;20080;-70
2022/05/31 00:56:46;;;;;;;6.65;3.25;;;11.60;66.00;;;;;;5092400;28;20375;-70
2022/05/31 00:59:31;;;;;;;3.45;2.53;;;11.60;66.20;;;;;;5092418;28;20073;-69
2022/05/31 01:01:57;;;;;;;3.47;2.35;;;11.60;66.10;;;;;;5099397;28;20158;-68
2022/05/31 01:04:41;;;;;;;3.20;2.45;;;11.60;66.10;;;;;;5106126;28;20023;-69
2022/05/31 01:07:08;;;;;;;2.60;2.13;;;11.50;66.90;;;;;;5093093;28;20023;-68
2022/05/31 01:09:34;;;;;;;2.80;2.13;;;11.60;66.20;;;;;;5090933;28;20643;-69
2022/05/31 01:12:01;;;;;;;3.50;2.20;;;11.50;66.10;;;;;;5098362;28;20024;-69
2022/05/31 01:14:27;;;;;;;3.25;2.10;;;11.50;66.20;;;;;;5084253;28;20024;-68
2022/05/31 01:17:14;;;;;;;3.17;2.10;;;11.50;66.30;;;;;;5102663;28;20104;-68
2022/05/31 01:22:29;;;;;;;2.88;2.35;;;11.40;66.50;;;;;;5100914;28;20055;-69
2022/05/31 01:25:07;;;;;;;2.20;2.00;;;11.40;66.60;;;;;;5111155;28;20114;-68
2022/05/31 01:28:01;;;;;;;3.72;2.50;;;11.40;66.60;;;;;;5092041;28;20046;-69
2022/05/31 01:30:31;;;;;;;3.65;2.13;;;11.40;66.80;;;;;;5077762;28;20048;-69
2022/05/31 01:33:07;;;;;;;3.45;2.35;;;11.30;66.70;;;;;;5103339;28;20015;-68
2022/05/31 01:35:34;;;;;;;3.40;2.65;;;11.40;66.90;;;;;;5102855;28;20024;-69
2022/05/31 01:38:09;;;;;;;3.88;2.03;;;11.30;67.00;;;;;;5104031;28;20051;-68
2022/05/31 01:40:53;;;;;;;2.60;1.95;;;11.30;67.00;;;;;;5087523;28;20028;-69
2022/05/31 01:43:19;;;;;;;3.03;2.00;;;11.30;67.10;;;;;;5097179;28;20024;-68
2022/05/31 01:46:09;;;;;;;3.35;2.42;;;11.20;67.00;;;;;;5103618;28;20077;-68
2022/05/31 01:48:37;;;;;;;3.75;2.25;;;11.20;67.10;;;;;;5105639;28;20405;-69
2022/05/31 01:51:04;;;;;;;3.75;2.20;;;11.20;67.00;;;;;;5102996;28;20050;-68
2022/05/31 01:53:30;;;;;;;2.63;2.05;;;11.20;66.90;;;;;;5087041;28;20068;-69
2022/05/31 01:55:56;;;;;;;3.78;2.13;;;11.30;67.00;;;;;;5096464;28;20019;-69
2022/05/31 01:58:25;;;;;;;2.20;2.00;;;11.20;67.00;;;;;;5089804;28;20036;-70
2022/05/31 02:00:52;;;;;;;2.85;2.28;;;11.20;67.00;;;;;;5103305;28;20447;-70
2022/05/31 02:03:20;;;;;;;4.63;2.70;;;11.20;67.10;;;;;;5102350;28;20088;-69
2022/05/31 02:05:51;;;;;;;4.47;2.35;;;11.20;67.10;;;;;;5104040;28;20035;-68
2022/05/31 02:08:19;;;;;;;2.75;2.00;;;11.20;67.00;;;;;;5097052;28;20065;-69
2022/05/31 02:10:45;;;;;;;2.67;2.25;;;11.30;66.80;;;;;;5101206;28;20035;-69
2022/05/31 02:13:12;;;;;;;2.95;1.85;;;11.30;66.60;;;;;;5100952;28;20069;-70
2022/05/31 02:15:37;;;;;;;7.38;3.85;;;11.40;66.50;;;;;;5089973;28;20027;-69
2022/05/31 02:18:03;;;;;;;4.03;2.92;;;11.40;66.30;;;;;;5103389;28;20031;-69
2022/05/31 02:20:29;;;;;;;3.45;2.38;;;11.40;66.20;;;;;;5094565;28;20362;-69
2022/05/31 02:22:54;;;;;;;3.33;2.20;;;11.50;66.20;;;;;;5108430;28;20016;-68
2022/05/31 02:25:20;;;;;;;2.80;2.00;;;11.50;66.00;;;;;;5105546;28;20048;-70
2022/05/31 02:27:46;;;;;;;3.03;2.20;;;11.60;65.90;;;;;;5098035;28;20103;-70
2022/05/31 02:30:12;;;;;;;3.85;2.55;;;11.60;65.70;;;;;;5084718;28;20023;-70
2022/05/31 02:32:38;;;;;;;3.33;2.30;;;11.60;65.70;;;;;;5092547;28;20435;-70
2022/05/31 02:35:05;;;;;;;4.07;2.75;;;11.70;65.60;;;;;;5105097;28;20107;-70
2022/05/31 02:37:31;;;;;;;3.63;2.60;;;11.70;65.50;;;;;;5092807;28;20123;-71
2022/05/31 02:39:57;;;;;;;3.33;2.53;;;11.70;65.40;;;;;;5096691;28;20023;-71
2022/05/31 02:42:23;;;;;;;5.13;3.22;;;11.70;65.30;;;;;;5098352;28;20044;-71
2022/05/31 02:44:48;;;;;;;8.18;4.82;;;11.70;65.50;;;;;;5092132;28;20025;-71
2022/05/31 02:47:14;;;;;;;6.88;4.57;;;11.70;65.40;;;;;;5079994;28;20044;-71
2022/05/31 02:49:40;;;;;;;4.82;3.13;;;11.70;65.40;;;;;;5105110;28;20504;-69
2022/05/31 02:52:06;;;;;;;4.10;3.13;;;11.60;65.40;;;;;;5108123;28;20023;-69
2022/05/31 02:54:32;;;;;;;4.82;3.20;;;11.60;65.50;;;;;;5097718;28;20043;-69
2022/05/31 02:56:58;;;;;;;3.47;2.60;;;11.60;65.50;;;;;;5105451;28;20028;-69
2022/05/31 02:59:23;;;;;;;2.90;2.40;;;11.60;65.60;;;;;;5089087;28;20028;-69
2022/05/31 03:01:51;;;;;;;3.75;2.65;;;11.50;65.60;;;;;;5101199;28;20008;-69
2022/05/31 03:04:17;;;;;;;4.05;2.60;;;11.50;65.70;;;;;;5085233;28;20080;-69
2022/05/31 03:06:43;;;;;;;3.80;2.55;;;11.50;65.80;;;;;;5094711;28;20558;-69
2022/05/31 03:09:09;;;;;;;4.05;2.83;;;11.50;65.70;;;;;;5101924;28;20102;-69
2022/05/31 03:11:56;;;;;;;3.22;2.53;;;11.50;65.70;;;;;;5101080;28;20371;-69
2022/05/31 03:14:40;;;;;;;4.03;2.97;;;11.50;65.60;;;;;;5107170;28;20027;-68
2022/05/31 03:17:15;;;;;;;3.05;2.47;;;11.50;65.60;;;;;;5091648;28;20031;-69
2022/05/31 03:20:14;;;;;;;4.07;2.67;;;11.50;65.50;;;;;;5102849;28;20840;-69
2022/05/31 03:22:47;;;;;;;3.33;2.53;;;11.60;65.40;;;;;;5103779;28;20020;-69
2022/05/31 03:25:18;;;;;;;4.75;3.22;;;11.60;65.40;;;;;;5098454;28;20531;-70
2022/05/31 03:27:44;;;;;;;3.97;3.22;;;11.50;65.30;;;;;;5089607;28;20023;-69
2022/05/31 03:30:11;;;;;;;3.17;2.88;;;11.50;65.50;;;;;;5090361;28;20036;-70
2022/05/31 03:32:37;;;;;;;5.68;3.20;;;11.50;65.60;;;;;;5100423;28;20050;-70
2022/05/31 03:35:03;;;;;;;3.38;2.85;;;11.50;65.60;;;;;;5092110;28;20023;-71
2022/05/31 03:37:29;;;;;;;6.00;3.40;;;11.40;65.60;;;;;;5086657;28;20027;-69
2022/05/31 03:39:54;;;;;;;4.07;3.25;;;11.40;65.60;;;;;;5092487;28;20034;-69
2022/05/31 03:42:20;;;;;;;4.55;3.22;;;11.40;65.70;;;;;;5096259;28;20034;-69
2022/05/31 03:44:45;;;;;;;5.15;4.00;;;11.40;65.80;;;;;;5080239;28;20065;-68
2022/05/31 03:47:11;;;;;;;4.03;2.90;;;11.40;65.90;;;;;;5096975;28;20031;-69
2022/05/31 03:49:36;;;;;;;6.22;3.45;;;11.40;65.90;;;;;;5076543;28;20119;-70
2022/05/31 03:52:02;;;;;;;5.55;3.28;;;11.40;65.80;;;;;;5076199;28;20397;-69
2022/05/31 03:54:29;;;;;;;7.55;3.80;;;11.40;65.80;;;;;;5104930;28;20077;-71
2022/05/31 03:56:54;;;;;;;4.85;3.05;;;11.40;65.90;;;;;;5104062;28;20111;-69
2022/05/31 03:59:20;;;;;;;4.05;3.50;;;11.40;65.80;;;;;;5086750;28;20106;-71
2022/05/31 04:01:45;;;;;;;5.18;3.25;;;11.40;65.70;;;;;;5097589;28;20400;-71
2022/05/31 04:04:11;;;;;;;4.13;3.13;;;11.40;65.80;;;;;;5101574;28;20019;-69
2022/05/31 04:06:36;;;;;;;5.50;3.50;;;11.40;65.60;;;;;;5098381;28;20445;-70
2022/05/31 04:09:03;;;;;;;6.88;3.78;;;11.40;65.70;;;;;;5098896;28;20502;-70
2022/05/31 04:11:29;;;;;;;4.60;3.50;;;11.40;65.70;;;;;;5100749;28;20024;-69
2022/05/31 04:13:55;;;;;;;7.22;3.85;;;11.40;65.80;;;;;;5100840;28;20035;-69
2022/05/31 04:16:21;;;;;;;4.70;3.70;;;11.40;65.90;;;;;;5095355;28;20174;-68
2022/05/31 04:18:46;;;;;;;3.60;2.90;;;11.40;65.90;;;;;;5093020;28;20107;-71
2022/05/31 04:21:16;;;;;;;4.45;3.55;;;11.40;65.80;;;;;;5087806;28;20107;-70
2022/05/31 04:23:58;;;;;;;6.30;4.30;;;11.50;65.70;;;;;;5106961;28;20016;-69
2022/05/31 04:26:25;;;;;;;4.72;3.80;;;11.50;65.70;;;;;;5104773;28;20104;-69
2022/05/31 04:28:51;;;;;;;4.80;3.83;;;11.40;65.80;;;;;;5084364;28;20077;-69
2022/05/31 04:31:17;;;;;;;4.40;3.20;;;11.50;65.70;;;;;;5080772;28;20027;-68
2022/05/31 04:33:42;;;;;;;4.25;3.30;;;11.50;65.60;;;;;;5085385;28;20125;-66
2022/05/31 04:36:11;;;;;;;5.15;3.67;;;11.50;65.50;;;;;;5091760;28;20023;-67
2022/05/31 04:38:37;;;;;;;4.72;3.40;;;11.60;65.40;;;;;;5106014;28;20470;-67
2022/05/31 04:41:03;;;;;;;4.57;3.03;;;11.60;65.40;;;;;;5095276;28;20466;-68
2022/05/31 04:43:29;;;;;;;4.70;2.65;;;11.70;65.20;;;;;;5097307;28;20048;-68
2022/05/31 04:45:55;;;;;;;5.13;3.88;;;11.70;65.10;;;;;;5075934;28;20552;-67
2022/05/31 04:48:20;;;;;;;4.07;3.50;;;11.80;64.90;;;;;;5113102;28;20023;-67
2022/05/31 04:50:47;;;;;;;4.15;3.22;;;11.80;64.80;;;;;;5087310;28;20113;-70
2022/05/31 04:53:12;;;;;;;3.08;2.70;;;11.90;64.80;;;;;;5095601;28;20477;-72
2022/05/31 04:55:38;;;;;;;4.65;3.55;;;12.00;64.60;;;;;;5100528;28;20032;-70
2022/05/31 04:58:04;;;;;;;5.22;3.45;;;12.00;64.40;;;;;;5110020;28;20024;-70
2022/05/31 05:00:30;;;;;;;5.90;3.60;;;12.00;64.20;;;;;;5096624;28;20096;-71
2022/05/31 05:02:56;;;;;;;5.03;3.17;;;12.10;64.20;;;;;;5099070;28;20385;-71
2022/05/31 05:05:22;;;;;;;6.78;4.80;;;12.20;64.00;;;;;;5092277;28;20051;-70
2022/05/31 05:07:47;;;;;;;6.20;4.07;;;12.20;63.70;;;;;;5111597;28;20489;-70
2022/05/31 05:10:12;;;;;;;5.05;3.90;;;12.20;63.60;;;;;;5100307;28;20198;-69
2022/05/31 05:12:38;;;;;;;4.88;3.58;;;12.30;63.50;;;;;;5103993;28;20410;-71
2022/05/31 05:15:07;;;;;;;6.32;4.05;;;12.30;63.30;;;;;;5107611;28;20034;-70
2022/05/31 05:17:33;;;;;;;6.40;4.47;;;12.30;63.00;;;;;;5108633;28;20024;-70
2022/05/31 05:19:59;;;;;;;5.93;4.10;;;12.40;62.90;;;;;;5109585;28;20039;-71
2022/05/31 05:22:27;;;;;;;5.78;4.00;;;12.40;62.70;;;;;;5089108;28;20026;-70
2022/05/31 05:24:52;;;;;;;5.90;3.70;;;12.50;62.60;;;;;;5108470;28;20028;-71
2022/05/31 05:27:18;;;;;;;4.15;3.20;;;12.50;62.50;;;;;;5107369;28;20077;-71
2022/05/31 05:32:27;;;;;;;5.30;3.53;;;12.80;62.20;;;;;;5085968;28;20039;-71
2022/05/31 05:34:54;;;;;;;4.88;3.05;;;12.70;62.00;;;;;;5090230;28;20035;-70
2022/05/31 05:37:20;;;;;;;5.07;3.00;;;12.90;62.00;;;;;;5092444;28;20504;-71
2022/05/31 05:39:46;;;;;;;3.30;2.85;;;13.00;61.80;;;;;;5073540;28;20040;-69
2022/05/31 05:42:12;;;;;;;4.47;3.10;;;13.10;61.70;;;;;;5094614;28;20026;-68
2022/05/31 05:44:38;;;;;;;5.93;3.35;;;13.20;61.40;;;;;;5110088;28;20094;-68
2022/05/31 05:47:08;;;;;;;6.43;3.78;;;13.10;61.20;;;;;;5083904;28;20475;-69
2022/05/31 05:49:35;;;;;;;4.35;3.10;;;13.10;61.20;;;;;;5090231;28;20103;-69
2022/05/31 05:52:03;;;;;;;6.47;3.22;;;13.20;61.20;;;;;;5090566;28;20059;-70
2022/05/31 05:54:29;;;;;;;6.82;4.28;;;13.20;61.00;;;;;;5091835;28;20043;-70
2022/05/31 05:56:54;;;;;;;6.05;4.30;;;13.10;60.90;;;;;;5089727;28;20474;-70
2022/05/31 05:59:20;;;;;;;5.65;3.45;;;13.00;61.00;;;;;;5089744;28;20138;-70
2022/05/31 06:01:54;;;;;;;7.38;3.97;;;13.00;61.20;;;;;;5069585;28;20517;-70
2022/05/31 06:05:00;;;;;;;5.97;4.05;;;13.10;61.30;;;;;;5081766;28;20036;-70
2022/05/31 06:07:31;;;;;;;6.07;4.07;;;13.10;61.20;;;;;;5081437;28;20079;-69
2022/05/31 06:10:08;;;;;;;6.55;4.25;;;13.00;61.50;;;;;;5100090;28;20027;-71
2022/05/31 06:12:40;;;;;;;6.22;4.30;;;13.00;61.80;;;;;;5094153;28;20028;-70
2022/05/31 06:15:14;;;;;;;6.32;4.38;;;13.00;61.90;;;;;;5099692;28;20016;-70
2022/05/31 06:17:43;;;;;;;4.80;3.75;;;13.10;61.80;;;;;;5092534;28;20032;-68
2022/05/31 06:20:10;;;;;;;7.15;4.57;;;13.10;61.80;;;;;;5083195;28;20056;-68
2022/05/31 06:22:41;;;;;;;4.60;4.05;;;13.20;61.90;;;;;;5094805;28;20089;-68
2022/05/31 06:25:08;;;;;;;7.00;4.30;;;13.20;62.00;;;;;;5087272;28;20027;-69
2022/05/31 06:27:34;;;;;;;5.00;3.88;;;13.30;62.00;;;;;;5078376;28;20036;-68
2022/05/31 06:29:59;;;;;;;6.13;4.18;;;13.30;61.90;;;;;;5082420;28;20024;-69
2022/05/31 06:32:25;;;;;;;5.85;3.38;;;13.30;62.00;;;;;;5082791;28;20375;-69
2022/05/31 06:34:51;;;;;;;4.28;3.45;;;13.30;62.10;;;;;;5098089;28;20031;-68
2022/05/31 06:37:17;;;;;;;5.78;3.53;;;13.30;62.10;;;;;;5101352;28;20134;-69
2022/05/31 06:39:44;;;;;;;7.57;4.20;;;13.40;62.20;;;;;;5097947;28;20016;-69
2022/05/31 06:42:10;;;;;;;4.57;3.20;;;13.40;62.10;;;;;;5096652;28;20031;-69
2022/05/31 06:44:42;;;;;;;6.28;4.32;;;13.50;62.20;;;;;;5088630;28;20021;-72
2022/05/31 06:47:10;;;;;;;5.43;4.25;;;13.50;62.30;;;;;;5094029;28;20024;-71
2022/05/31 06:49:36;;;;;;;6.30;4.05;;;13.50;62.30;;;;;;5101496;28;20107;-70
2022/05/31 06:57:35;;;;;;;4.63;3.38;;;13.50;62.80;;;;;;5089638;28;20067;-70
2022/05/31 07:00:02;;;;;;;5.63;3.40;;;13.50;62.80;;;;;;5100260;28;20047;-70
2022/05/31 07:02:28;;;;;;;5.80;4.07;;;13.60;62.80;;;;;;5084742;28;20035;-69
2022/05/31 07:04:54;;;;;;;5.95;4.40;;;13.50;63.20;;;;;;5080877;28;20032;-69
2022/05/31 07:07:20;;;;;;;5.35;4.20;;;13.50;63.60;;;;;;5085711;28;20038;-69
2022/05/31 07:09:45;;;;;;;9.40;5.90;;;13.50;63.80;;;;;;5088048;28;20036;-69
2022/05/31 07:12:11;;;;;;;8.38;4.63;;;13.40;64.00;;;;;;5084393;28;20023;-67
2022/05/31 07:14:37;;;;;;;5.22;3.88;;;13.40;64.10;;;;;;5087280;28;20055;-67
2022/05/31 07:17:03;;;;;;;7.25;4.10;;;13.50;63.80;;;;;;5108783;28;20119;-68
2022/05/31 07:19:29;;;;;;;6.32;4.30;;;13.60;63.60;;;;;;5087797;28;20054;-69
2022/05/31 07:21:58;;;;;;;6.03;4.80;;;13.60;63.40;;;;;;5081051;28;20245;-70
2022/05/31 07:24:23;;;;;;;8.18;5.10;;;13.60;63.40;;;;;;5075099;28;20058;-68
2022/05/31 07:26:49;;;;;;;5.20;4.28;;;13.60;63.30;;;;;;5092409;28;20036;-70
2022/05/31 07:29:14;;;;;;;5.63;4.07;;;13.70;63.20;;;;;;5085235;28;20486;-69
2022/05/31 07:31:42;;;;;;;5.07;4.07;;;13.70;63.00;;;;;;5085312;28;21538;-69
2022/05/31 07:34:07;;;;;;;7.32;5.32;;;13.70;63.00;;;;;;5099444;28;20047;-71
2022/05/31 07:36:33;;;;;;;7.78;5.53;;;13.70;62.80;;;;;;5078477;28;20044;-70
2022/05/31 07:38:59;;;;;;;5.78;4.13;;;13.70;62.80;;;;;;5076826;28;20094;-70
2022/05/31 07:41:24;;;;;;;5.57;3.47;;;13.90;62.80;;;;;;5084666;28;20073;-69
2022/05/31 07:43:50;;;;;;;5.75;4.30;;;14.00;62.40;;;;;;5069213;28;20031;-70
2022/05/31 07:46:15;;;;;;;7.38;4.43;;;14.10;62.20;;;;;;5098849;28;20102;-70
2022/05/31 07:48:41;;;;;;;5.50;4.25;;;14.10;62.10;;;;;;5080134;28;20062;-70
2022/05/31 07:51:07;;;;;;;6.15;4.28;;;14.20;62.00;;;;;;5098049;28;20014;-69
2022/05/31 07:53:34;;;;;;;5.47;3.40;;;14.20;62.60;;;;;;5099426;28;20031;-69
2022/05/31 07:56:06;;;;;;;7.75;4.35;;;14.20;61.90;;;;;;5098676;28;20020;-70
2022/05/31 07:58:33;;;;;;;4.35;3.38;;;14.20;61.90;;;;;;5077138;28;20658;-68
2022/05/31 08:01:06;;;;;;;5.00;3.80;;;14.40;61.80;;;;;;5064129;28;20384;-69
2022/05/31 08:03:33;;;;;;;7.07;4.50;;;14.40;61.60;;;;;;5092605;28;20030;-69
2022/05/31 08:06:11;;;;;;;7.68;4.85;;;14.50;61.30;;;;;;5094511;28;20019;-70
2022/05/31 08:08:37;;;;;;;6.45;3.88;;;14.50;61.00;;;;;;5061947;28;20098;-70
2022/05/31 08:11:07;;;;;;;5.53;3.88;;;14.70;60.80;;;;;;5096835;28;20029;-70
2022/05/31 08:13:33;;;;;;;8.68;5.13;;;14.80;60.60;;;;;;5077942;28;20106;-70
2022/05/31 08:16:00;;;;;;;5.22;4.07;;;14.70;60.20;;;;;;5099648;28;20478;-67
2022/05/31 08:18:27;;;;;;;7.82;4.90;;;14.70;60.50;;;;;;5081770;28;20119;-69
2022/05/31 08:21:12;;;;;;;6.93;5.15;;;14.80;60.30;;;;;;5085752;28;20063;-69
2022/05/31 08:23:38;;;;;;;8.07;4.32;;;14.70;60.40;;;;;;5081757;28;20025;-69
2022/05/31 08:26:04;;;;;;;6.10;4.60;;;14.70;60.60;;;;;;5083780;28;20026;-70
2022/05/31 08:28:31;;;;;;;5.70;4.80;;;14.60;60.60;;;;;;5087918;28;20035;-68
2022/05/31 08:31:03;;;;;;;8.23;5.82;;;14.60;60.70;;;;;;5088870;28;20032;-69
2022/05/31 08:33:29;;;;;;;;;;;14.60;61.60;;;;;;5092347;28;20028;-69
2022/05/31 08:35:55;;;;;;;5.90;4.40;;;14.60;61.10;;;;;;5085660;28;20259;-70
2022/05/31 08:38:21;;;;;;;6.97;5.05;;;14.70;61.10;;;;;;5089336;28;20594;-70
2022/05/31 08:41:06;;;;;;;4.93;4.43;;;14.70;61.10;;;;;;5084323;28;20040;-68
2022/05/31 08:43:58;;;;;;;7.80;4.75;;;14.80;61.00;;;;;;5089006;28;20020;-66
2022/05/31 08:46:39;;;;;;;7.18;4.93;;;15.00;60.80;;;;;;5089605;28;20063;-69
2022/05/31 08:51:52;;;;;;;6.82;5.47;;;15.00;60.50;;;;;;5074765;28;20040;-69
2022/05/31 08:52:24;;;;;;;7.13;4.57;;;15.00;60.60;;;;;;5091352;28;20262;-69
2022/05/31 08:57:50;;;;;;;8.07;4.80;;;15.20;60.30;;;;;;5097435;28;20091;-69
2022/05/31 09:00:33;;;;;;;7.07;5.20;;;15.40;59.90;;;;;;5091194;28;20055;-69
2022/05/31 09:03:30;;;;;;;6.68;4.15;;;15.50;59.70;;;;;;5087758;28;20024;-70
2022/05/31 09:06:07;;;;;;;8.93;5.65;;;15.70;59.50;;;;;;5080939;28;20415;-70
2022/05/31 09:08:38;;;;;;;5.32;3.88;;;15.70;59.40;;;;;;5086959;28;20054;-67
2022/05/31 09:11:27;;;;;;;7.63;6.32;;;15.80;59.40;;;;;;5086821;28;20027;-70
2022/05/31 09:14:07;;;;;;;6.30;5.03;;;16.00;58.90;;;;;;5065250;28;20032;-69
2022/05/31 09:16:57;;;;;;;5.70;4.18;;;16.10;58.70;;;;;;5080301;28;20035;-68
2022/05/31 09:19:47;;;;;;;8.25;4.32;;;16.30;58.50;;;;;;5087129;28;20051;-70
2022/05/31 09:22:15;;;;;;;8.23;4.55;;;16.50;57.80;;;;;;5088220;28;20044;-69
2022/05/31 09:24:43;;;;;;;7.57;5.07;;;16.70;57.00;;;;;;5071161;28;20016;-71
2022/05/31 09:27:11;;;;;;;5.18;3.90;;;17.00;55.80;;;;;;5085192;28;20023;-68
2022/05/31 09:30:01;;;;;;;6.43;4.38;;;17.20;55.80;;;;;;5069177;28;20021;-69
2022/05/31 09:32:58;;;;;;;7.05;4.47;;;17.50;55.30;;;;;;5082425;28;20666;-69
2022/05/31 09:35:51;;;;;;;6.75;4.90;;;17.60;54.40;;;;;;5082490;28;20028;-69
2022/05/31 09:38:48;;;;;;;6.57;5.18;;;17.50;53.80;;;;;;5089570;28;20040;-70
2022/05/31 09:41:26;;;;;;;6.05;4.15;;;17.50;53.40;;;;;;5084836;28;20043;-70
2022/05/31 09:44:17;;;;;;;6.45;4.03;;;17.70;53.60;;;;;;5083114;28;20439;-69
2022/05/31 09:47:11;;;;;;;4.68;4.03;;;18.00;53.30;;;;;;5085097;28;20494;-69
2022/05/31 09:49:43;;;;;;;6.18;4.45;;;18.20;52.20;;;;;;5086111;28;20040;-69
2022/05/31 09:52:37;;;;;;;6.18;3.92;;;18.40;51.40;;;;;;5084076;28;20065;-69
2022/05/31 09:58:06;;;;;;;4.53;2.88;;;18.70;50.80;;;;;;5093301;28;20461;-70
2022/05/31 10:00:31;;;;;;;5.82;4.10;;;19.00;51.00;;;;;;5086687;28;20020;-69
2022/05/31 10:03:17;;;;;;;4.68;3.42;;;19.20;50.10;;;;;;5072743;28;20642;-68
2022/05/31 10:05:48;;;;;;;6.90;3.88;;;19.20;49.50;;;;;;5078387;28;20440;-69
2022/05/31 10:08:34;;;;;;;5.70;3.65;;;19.10;48.40;;;;;;5085508;28;20475;-68
2022/05/31 10:11:05;;;;;;;5.70;4.15;;;18.80;48.00;;;;;;5089792;28;20102;-68
2022/05/31 10:14:14;;;;;;;3.65;2.63;;;18.40;48.50;;;;;;5078065;28;20500;-68
2022/05/31 10:16:39;;;;;;;3.90;2.95;;;18.20;49.40;;;;;;5081558;28;20051;-68
2022/05/31 10:19:08;;;;;;;6.60;3.72;;;18.30;48.60;;;;;;5057706;28;20028;-67
2022/05/31 10:21:40;;;;;;;5.38;3.75;;;18.50;48.50;;;;;;5085267;28;20142;-68
2022/05/31 10:24:06;;;;;;;6.80;3.30;;;18.40;48.70;;;;;;5079545;28;20035;-68
2022/05/31 10:26:34;;;;;;;3.58;2.20;;;18.30;48.90;;;;;;5087586;28;20021;-68
2022/05/31 10:29:06;;;;;;;3.55;2.05;;;18.50;48.70;;;;;;5080501;28;20051;-68
2022/05/31 10:31:34;;;;;;;;;;;18.90;48.00;;;;;;5086938;28;20040;-67
2022/05/31 10:34:24;;;;;;;3.75;2.70;;;19.20;47.30;;;;;;5089383;28;20008;-67
2022/05/31 10:36:56;;;;;;;5.10;2.80;;;19.20;46.60;;;;;;5097762;28;20028;-68
2022/05/31 10:39:23;;;;;;;;;;;19.10;46.70;;;;;;5087453;28;20214;-69
2022/05/31 10:41:51;;;;;;;5.85;2.50;;;19.30;47.00;;;;;;5089335;28;19915;-69
2022/05/31 10:44:33;;;;;;;4.45;2.60;;;19.50;46.40;;;;;;5071920;28;20024;-69
2022/05/31 10:47:14;;;;;;;3.95;2.15;;;19.60;45.90;;;;;;5077355;28;20391;-68
2022/05/31 10:49:42;;;;;;;5.32;3.08;;;19.60;45.40;;;;;;5086651;28;20036;-69
2022/05/31 10:52:32;;;;;;;3.47;2.10;;;19.30;43.70;;;;;;5089446;28;20482;-69
2022/05/31 10:55:30;;;;;;;3.10;1.80;;;19.20;44.50;;;;;;5078836;28;20024;-69
2022/05/31 10:58:20;;;;;;;4.30;2.17;;;19.40;44.50;;;;;;5085520;28;20093;-70
2022/05/31 11:01:08;;;;;;;3.00;2.30;;;19.50;43.00;;;;;;5091687;28;20029;-68
2022/05/31 11:03:55;;;;;;;2.88;2.10;;;19.30;42.90;;;;;;5096954;28;20017;-69
2022/05/31 11:06:39;;;;;;;5.00;2.72;;;19.20;42.60;;;;;;5094368;28;20035;-69
2022/05/31 11:12:47;;;;;;;3.33;2.47;;;19.20;43.20;;;;;;5066761;28;20046;-69
2022/05/31 11:15:28;;;;;;;1.98;1.60;;;19.30;43.30;;;;;;5094638;28;20047;-68
2022/05/31 11:18:19;;;;;;;2.67;1.67;;;19.60;43.50;;;;;;5075782;28;20666;-68
2022/05/31 11:21:13;;;;;;;1.83;1.40;;;19.90;42.90;;;;;;5082744;28;20012;-68
2022/05/31 11:23:54;;;;;;;2.85;2.00;;;20.30;42.20;;;;;;5088318;28;20044;-68
2022/05/31 11:26:39;;;;;;;3.42;2.15;;;20.50;41.70;;;;;;5089038;28;20031;-68
2022/05/31 11:29:12;;;;;;;3.47;2.67;;;20.80;41.70;;;;;;5082131;28;20015;-68
2022/05/31 11:31:52;;;;;;;4.40;2.30;;;21.00;39.70;;;;;;5077329;28;20034;-68
2022/05/31 11:34:20;;;;;;;4.28;2.10;;;20.90;39.80;;;;;;5081990;28;20028;-69
2022/05/31 11:36:57;;;;;;;2.92;2.10;;;20.90;39.60;;;;;;5077823;28;20020;-69
2022/05/31 11:39:44;;;;;;;2.65;1.92;;;20.80;40.20;;;;;;5092117;28;20096;-66
2022/05/31 11:42:16;;;;;;;3.05;1.95;;;21.10;40.10;;;;;;5091838;28;20016;-69
2022/05/31 11:45:15;;;;;;;3.67;2.10;;;20.90;39.90;;;;;;5087138;28;20027;-68
2022/05/31 11:47:53;;;;;;;2.40;1.80;;;20.90;39.60;;;;;;5081651;28;20031;-68
2022/05/31 11:50:40;;;;;;;2.80;1.80;;;21.40;40.00;;;;;;5085206;28;20063;-68
2022/05/31 11:53:34;;;;;;;2.70;1.45;;;21.70;39.40;;;;;;5092702;28;20104;-68
2022/05/31 11:56:09;;;;;;;3.10;1.42;;;22.10;39.00;;;;;;5077152;28;20051;-68
2022/05/31 11:58:49;;;;;;;1.35;1.20;;;22.40;37.80;;;;;;5085192;28;20028;-69
2022/05/31 12:01:34;;;;;;;2.75;1.50;;;22.70;37.90;;;;;;5085103;28;20352;-70
2022/05/31 12:04:09;;;;;;;1.42;1.30;;;23.00;36.90;;;;;;5090167;28;20533;-68
2022/05/31 12:06:53;;;;;;;4.68;1.63;;;23.20;36.50;;;;;;5077019;28;20028;-67
2022/05/31 12:09:26;;;;;;;1.70;1.30;;;23.20;36.20;;;;;;5085696;28;20111;-68
2022/05/31 12:11:56;;;;;;;2.92;1.52;;;23.20;35.70;;;;;;5095875;28;20094;-69
2022/05/31 12:14:23;;;;;;;3.05;1.40;;;23.00;34.80;;;;;;5083161;28;20386;-69
2022/05/31 12:16:50;;;;;;;2.95;1.70;;;23.10;34.40;;;;;;5080925;28;20025;-69
2022/05/31 12:19:29;;;;;;;1.83;1.40;;;22.80;34.60;;;;;;5083105;28;20470;-69
2022/05/31 12:22:05;;;;;;;2.40;1.40;;;22.80;34.80;;;;;;5081427;28;20028;-69
2022/05/31 12:24:43;;;;;;;2.03;1.23;;;23.30;34.80;;;;;;5082554;28;20518;-67
2022/05/31 12:27:18;;;;;;;2.80;1.30;;;23.40;34.50;;;;;;5072951;28;20027;-68
2022/05/31 12:29:49;;;;;;;2.30;1.52;;;23.40;34.50;;;;;;5080637;28;20025;-68
2022/05/31 12:32:20;;;;;;;2.47;1.30;;;23.50;34.80;;;;;;5085509;28;20031;-69
2022/05/31 12:34:46;;;;;;;2.95;1.98;;;23.40;34.10;;;;;;5093668;28;20515;-68
2022/05/31 12:37:13;;;;;;;1.85;1.40;;;23.40;33.60;;;;;;5074831;28;20032;-68
2022/05/31 12:39:44;;;;;;;1.55;1.30;;;23.50;34.10;;;;;;5086181;28;20016;-68
2022/05/31 12:42:12;;;;;;;1.27;1.02;;;23.80;33.90;;;;;;5099761;28;20028;-68
2022/05/31 12:44:39;;;;;;;2.17;1.23;;;24.20;33.60;;;;;;5089687;28;20517;-67
2022/05/31 12:47:21;;;;;;;1.70;1.40;;;24.40;32.90;;;;;;5086786;28;20073;-68
2022/05/31 12:49:50;;;;;;;2.17;1.15;;;24.50;32.50;;;;;;5075449;28;20040;-67
2022/05/31 12:55:00;;;;;;;2.60;1.70;;;24.50;31.90;;;;;;5085472;28;20019;-68
2022/05/31 12:58:26;;;;;;;2.50;1.77;;;24.40;31.90;;;;;;5085473;28;20260;-67
2022/05/31 13:00:32;;;;;;;3.00;1.30;;;24.40;32.50;;;;;;5082770;28;20103;-68
2022/05/31 13:02:59;;;;;;;2.90;1.77;;;24.50;32.50;;;;;;5060599;28;20028;-69
2022/05/31 13:06:04;;;;;;;3.55;1.70;;;24.20;31.30;;;;;;5079260;28;20023;-68
2022/05/31 13:08:51;;;;;;;4.57;1.60;;;23.80;32.40;;;;;;5097325;28;20032;-68
2022/05/31 13:20:34;;;;;;;2.70;1.77;;;22.80;33.10;;;;;;5081697;28;20047;-68
2022/05/31 13:23:08;;;;;;;3.45;1.85;;;22.10;34.00;;;;;;5076531;28;20024;-68
2022/05/31 13:25:58;;;;;;;2.03;1.50;;;21.80;34.60;;;;;;5075222;28;20048;-69
2022/05/31 13:28:34;;;;;;;2.28;1.50;;;21.50;35.60;;;;;;5077142;28;20069;-69
2022/05/31 13:31:11;;;;;;;2.10;1.30;;;21.50;35.50;;;;;;5075612;28;20024;-69
2022/05/31 13:33:37;;;;;;;1.83;1.27;;;21.50;35.70;;;;;;5085852;28;20538;-69
2022/05/31 13:36:19;;;;;;;1.25;1.15;;;21.70;35.90;;;;;;5088487;28;20034;-68
2022/05/31 13:38:47;;;;;;;1.75;1.10;;;21.80;35.80;;;;;;5055811;28;20104;-67
2022/05/31 13:41:15;;;;;;;2.38;1.42;;;21.80;35.70;;;;;;5068537;28;20439;-68
2022/05/31 13:43:47;;;;;;;2.30;1.20;;;21.70;35.50;;;;;;5104748;28;20012;-68
2022/05/31 13:46:16;;;;;;;3.00;1.27;;;21.60;35.60;;;;;;5090324;28;20028;-68